sensor_id;sensor_type;location;lat;lon;timestamp;pressure;altitude;pressure_sealevel;temperature;humidity
76611;BME280;65503;48.534;9.062;2023-03-19T00:00:29;96670.78;;;11.67;53.03
76611;BME280;65503;48.534;9.062;2023-03-19T00:02:56;96667.56;;;11.65;52.53
76611;BME280;65503;48.534;9.062;2023-03-19T00:05:22;96669.81;;;11.73;52.77
76611;BME280;65503;48.534;9.062;2023-03-19T00:07:49;96669.47;;;11.69;52.87
76611;BME280;65503;48.534;9.062;2023-03-19T00:10:15;96672.03;;;11.64;53.16
76611;BME280;65503;48.534;9.062;2023-03-19T00:12:42;96670.59;;;11.56;52.86
76611;BME280;65503;48.534;9.062;2023-03-19T00:15:09;96675.88;;;11.56;52.63
76611;BME280;65503;48.534;9.062;2023-03-19T00:17:40;96669.66;;;11.46;52.88
76611;BME280;65503;48.534;9.062;2023-03-19T00:20:10;96678.78;;;11.55;52.65
76611;BME280;65503;48.534;9.062;2023-03-19T00:22:37;96677.47;;;11.57;52.71
76611;BME280;65503;48.534;9.062;2023-03-19T00:25:06;96677.00;;;11.60;52.68
76611;BME280;65503;48.534;9.062;2023-03-19T00:27:33;96674.09;;;11.62;52.90
76611;BME280;65503;48.534;9.062;2023-03-19T00:30:00;96670.13;;;11.59;52.97
76611;BME280;65503;48.534;9.062;2023-03-19T00:32:27;96666.94;;;11.57;53.05
76611;BME280;65503;48.534;9.062;2023-03-19T00:34:55;96679.09;;;11.58;53.02
76611;BME280;65503;48.534;9.062;2023-03-19T00:37:21;96682.44;;;11.54;53.06
76611;BME280;65503;48.534;9.062;2023-03-19T00:39:48;96687.16;;;11.35;53.69
76611;BME280;65503;48.534;9.062;2023-03-19T00:42:15;96692.34;;;11.47;53.13
76611;BME280;65503;48.534;9.062;2023-03-19T00:44:41;96692.03;;;11.43;53.52
76611;BME280;65503;48.534;9.062;2023-03-19T00:47:08;96695.03;;;11.69;53.03
76611;BME280;65503;48.534;9.062;2023-03-19T00:49:34;96686.41;;;11.90;51.96
76611;BME280;65503;48.534;9.062;2023-03-19T00:52:01;96688.72;;;12.08;50.23
76611;BME280;65503;48.534;9.062;2023-03-19T00:54:27;96695.69;;;12.19;49.82
76611;BME280;65503;48.534;9.062;2023-03-19T00:56:54;96705.88;;;12.32;50.09
76611;BME280;65503;48.534;9.062;2023-03-19T00:59:20;96723.94;;;12.40;49.71
76611;BME280;65503;48.534;9.062;2023-03-19T01:01:47;96719.94;;;12.16;49.94
76611;BME280;65503;48.534;9.062;2023-03-19T01:04:13;96731.25;;;12.33;49.69
76611;BME280;65503;48.534;9.062;2023-03-19T01:06:40;96733.88;;;12.33;49.84
76611;BME280;65503;48.534;9.062;2023-03-19T01:09:07;96739.88;;;12.07;50.33
76611;BME280;65503;48.534;9.062;2023-03-19T01:11:34;96749.34;;;11.86;50.51
76611;BME280;65503;48.534;9.062;2023-03-19T01:14:00;96746.72;;;11.70;51.13
76611;BME280;65503;48.534;9.062;2023-03-19T01:16:27;96748.69;;;11.63;51.73
76611;BME280;65503;48.534;9.062;2023-03-19T01:18:54;96750.34;;;12.02;51.06
76611;BME280;65503;48.534;9.062;2023-03-19T01:21:20;96749.66;;;12.28;50.17
76611;BME280;65503;48.534;9.062;2023-03-19T01:23:47;96756.47;;;12.24;51.46
76611;BME280;65503;48.534;9.062;2023-03-19T01:26:14;96754.78;;;11.80;53.87
76611;BME280;65503;48.534;9.062;2023-03-19T01:28:40;96753.34;;;11.89;54.52
76611;BME280;65503;48.534;9.062;2023-03-19T01:31:07;96750.78;;;11.94;54.29
76611;BME280;65503;48.534;9.062;2023-03-19T01:33:35;96749.19;;;11.93;54.62
76611;BME280;65503;48.534;9.062;2023-03-19T01:36:04;96751.47;;;12.06;54.26
76611;BME280;65503;48.534;9.062;2023-03-19T01:38:31;96748.22;;;11.99;54.53
76611;BME280;65503;48.534;9.062;2023-03-19T01:40:58;96746.13;;;12.01;55.00
76611;BME280;65503;48.534;9.062;2023-03-19T01:43:29;96749.94;;;12.10;54.77
76611;BME280;65503;48.534;9.062;2023-03-19T01:48:58;96740.81;;;12.18;55.98
76611;BME280;65503;48.534;9.062;2023-03-19T01:51:29;96738.97;;;12.18;55.96
76611;BME280;65503;48.534;9.062;2023-03-19T01:54:04;96737.44;;;12.22;56.40
76611;BME280;65503;48.534;9.062;2023-03-19T01:56:33;96737.44;;;12.22;56.12
76611;BME280;65503;48.534;9.062;2023-03-19T01:59:07;96740.13;;;12.27;57.28
76611;BME280;65503;48.534;9.062;2023-03-19T02:01:38;96748.91;;;12.33;57.33
76611;BME280;65503;48.534;9.062;2023-03-19T02:04:06;96743.88;;;12.31;58.28
76611;BME280;65503;48.534;9.062;2023-03-19T02:06:33;96739.28;;;12.22;59.31
76611;BME280;65503;48.534;9.062;2023-03-19T02:09:00;96730.31;;;12.01;62.17
76611;BME280;65503;48.534;9.062;2023-03-19T02:11:28;96729.56;;;11.84;63.92
76611;BME280;65503;48.534;9.062;2023-03-19T02:13:54;96727.56;;;11.74;65.71
76611;BME280;65503;48.534;9.062;2023-03-19T02:16:21;96713.81;;;11.72;65.92
76611;BME280;65503;48.534;9.062;2023-03-19T02:18:48;96717.28;;;11.56;65.88
76611;BME280;65503;48.534;9.062;2023-03-19T02:21:16;96722.00;;;11.37;66.71
76611;BME280;65503;48.534;9.062;2023-03-19T02:24:07;96742.97;;;11.15;67.88
76611;BME280;65503;48.534;9.062;2023-03-19T02:26:37;96751.72;;;10.88;69.27
76611;BME280;65503;48.534;9.062;2023-03-19T02:29:03;96752.72;;;10.70;69.72
76611;BME280;65503;48.534;9.062;2023-03-19T02:31:31;96757.59;;;10.38;68.48
76611;BME280;65503;48.534;9.062;2023-03-19T02:34:03;96763.00;;;10.20;69.32
76611;BME280;65503;48.534;9.062;2023-03-19T02:36:42;96765.19;;;10.00;69.55
76611;BME280;65503;48.534;9.062;2023-03-19T02:39:20;96774.69;;;10.12;70.19
76611;BME280;65503;48.534;9.062;2023-03-19T02:41:47;96769.97;;;10.26;69.34
76611;BME280;65503;48.534;9.062;2023-03-19T02:44:15;96764.28;;;10.29;69.28
76611;BME280;65503;48.534;9.062;2023-03-19T02:46:45;96761.75;;;10.34;69.33
76611;BME280;65503;48.534;9.062;2023-03-19T02:49:12;96762.31;;;10.36;69.00
76611;BME280;65503;48.534;9.062;2023-03-19T02:51:38;96762.06;;;10.38;68.90
76611;BME280;65503;48.534;9.062;2023-03-19T02:54:05;96756.94;;;10.31;69.76
76611;BME280;65503;48.534;9.062;2023-03-19T02:56:32;96766.28;;;10.39;69.47
76611;BME280;65503;48.534;9.062;2023-03-19T02:58:58;96760.34;;;10.43;69.84
76611;BME280;65503;48.534;9.062;2023-03-19T03:01:25;96765.13;;;10.46;70.05
76611;BME280;65503;48.534;9.062;2023-03-19T03:03:51;96753.19;;;10.55;69.39
76611;BME280;65503;48.534;9.062;2023-03-19T03:06:18;96759.41;;;10.49;70.09
76611;BME280;65503;48.534;9.062;2023-03-19T03:08:45;96756.41;;;10.57;69.76
76611;BME280;65503;48.534;9.062;2023-03-19T03:11:11;96756.88;;;10.54;69.57
76611;BME280;65503;48.534;9.062;2023-03-19T03:13:37;96763.38;;;10.63;69.48
76611;BME280;65503;48.534;9.062;2023-03-19T03:16:04;96759.13;;;10.62;69.72
76611;BME280;65503;48.534;9.062;2023-03-19T03:18:31;96773.81;;;10.58;70.25
76611;BME280;65503;48.534;9.062;2023-03-19T03:20:58;96773.81;;;10.58;70.63
76611;BME280;65503;48.534;9.062;2023-03-19T03:23:24;96766.94;;;10.57;70.22
76611;BME280;65503;48.534;9.062;2023-03-19T03:25:51;96772.19;;;10.57;70.04
76611;BME280;65503;48.534;9.062;2023-03-19T03:28:18;96779.38;;;10.62;69.95
76611;BME280;65503;48.534;9.062;2023-03-19T03:30:45;96763.59;;;10.62;69.69
76611;BME280;65503;48.534;9.062;2023-03-19T03:33:12;96774.44;;;10.65;69.79
76611;BME280;65503;48.534;9.062;2023-03-19T03:35:39;96766.31;;;10.67;69.88
76611;BME280;65503;48.534;9.062;2023-03-19T03:38:05;96773.97;;;10.68;69.70
76611;BME280;65503;48.534;9.062;2023-03-19T03:40:32;96776.72;;;10.73;69.73
76611;BME280;65503;48.534;9.062;2023-03-19T03:42:59;96776.22;;;10.76;70.11
76611;BME280;65503;48.534;9.062;2023-03-19T03:45:26;96777.84;;;10.77;69.86
76611;BME280;65503;48.534;9.062;2023-03-19T03:47:53;96783.66;;;10.80;69.71
76611;BME280;65503;48.534;9.062;2023-03-19T03:50:19;96779.44;;;10.78;69.60
76611;BME280;65503;48.534;9.062;2023-03-19T03:52:46;96776.34;;;10.82;69.10
76611;BME280;65503;48.534;9.062;2023-03-19T03:55:13;96777.38;;;10.81;69.40
76611;BME280;65503;48.534;9.062;2023-03-19T03:57:39;96775.78;;;10.80;69.64
76611;BME280;65503;48.534;9.062;2023-03-19T04:00:07;96785.81;;;10.83;69.55
76611;BME280;65503;48.534;9.062;2023-03-19T04:02:34;96786.31;;;10.80;69.70
76611;BME280;65503;48.534;9.062;2023-03-19T04:05:00;96781.13;;;10.85;69.35
76611;BME280;65503;48.534;9.062;2023-03-19T04:07:27;96788.00;;;10.86;70.38
76611;BME280;65503;48.534;9.062;2023-03-19T04:09:56;96796.91;;;10.85;69.78
76611;BME280;65503;48.534;9.062;2023-03-19T04:12:22;96790.63;;;10.86;69.79
76611;BME280;65503;48.534;9.062;2023-03-19T04:14:49;96798.03;;;10.89;70.12
76611;BME280;65503;48.534;9.062;2023-03-19T04:17:16;96796.56;;;10.93;70.00
76611;BME280;65503;48.534;9.062;2023-03-19T04:19:43;96799.72;;;10.95;69.84
76611;BME280;65503;48.534;9.062;2023-03-19T04:22:09;96798.13;;;10.94;69.59
76611;BME280;65503;48.534;9.062;2023-03-19T04:24:36;96793.34;;;10.91;69.58
76611;BME280;65503;48.534;9.062;2023-03-19T04:27:03;96796.06;;;10.96;69.58
76611;BME280;65503;48.534;9.062;2023-03-19T04:29:29;96791.38;;;10.98;69.52
76611;BME280;65503;48.534;9.062;2023-03-19T04:31:56;96801.91;;;10.98;69.58
76611;BME280;65503;48.534;9.062;2023-03-19T04:34:23;96800.09;;;10.98;69.46
76611;BME280;65503;48.534;9.062;2023-03-19T04:36:50;96794.81;;;10.98;69.86
76611;BME280;65503;48.534;9.062;2023-03-19T04:39:17;96788.25;;;11.01;69.28
76611;BME280;65503;48.534;9.062;2023-03-19T04:41:43;96796.16;;;11.01;69.56
76611;BME280;65503;48.534;9.062;2023-03-19T04:44:10;96795.63;;;10.99;69.87
76611;BME280;65503;48.534;9.062;2023-03-19T04:46:37;96791.47;;;11.03;69.55
76611;BME280;65503;48.534;9.062;2023-03-19T04:49:04;96804.06;;;11.01;69.87
76611;BME280;65503;48.534;9.062;2023-03-19T04:51:30;96809.81;;;10.98;70.19
76611;BME280;65503;48.534;9.062;2023-03-19T04:53:58;96810.25;;;10.95;71.04
76611;BME280;65503;48.534;9.062;2023-03-19T04:56:25;96814.72;;;10.94;70.09
76611;BME280;65503;48.534;9.062;2023-03-19T04:58:52;96820.34;;;10.98;70.21
76611;BME280;65503;48.534;9.062;2023-03-19T05:01:19;96814.50;;;10.96;70.48
76611;BME280;65503;48.534;9.062;2023-03-19T05:03:46;96816.34;;;10.95;70.12
76611;BME280;65503;48.534;9.062;2023-03-19T05:06:12;96817.44;;;10.99;70.09
76611;BME280;65503;48.534;9.062;2023-03-19T05:08:39;96813.00;;;11.00;70.39
76611;BME280;65503;48.534;9.062;2023-03-19T05:11:05;96817.44;;;10.99;70.74
76611;BME280;65503;48.534;9.062;2023-03-19T05:13:31;96821.16;;;10.98;70.53
76611;BME280;65503;48.534;9.062;2023-03-19T05:15:58;96817.13;;;10.96;70.71
76611;BME280;65503;48.534;9.062;2023-03-19T05:18:25;96804.19;;;10.94;70.81
76611;BME280;65503;48.534;9.062;2023-03-19T05:20:51;96807.09;;;10.93;70.79
76611;BME280;65503;48.534;9.062;2023-03-19T05:23:18;96813.28;;;10.87;71.10
76611;BME280;65503;48.534;9.062;2023-03-19T05:25:45;96817.41;;;10.83;71.55
76611;BME280;65503;48.534;9.062;2023-03-19T05:28:12;96823.16;;;10.80;71.52
76611;BME280;65503;48.534;9.062;2023-03-19T05:30:39;96835.94;;;10.88;71.38
76611;BME280;65503;48.534;9.062;2023-03-19T05:33:06;96828.72;;;10.83;71.77
76611;BME280;65503;48.534;9.062;2023-03-19T05:35:33;96828.28;;;10.86;71.23
76611;BME280;65503;48.534;9.062;2023-03-19T05:38:02;96829.41;;;10.90;71.17
76611;BME280;65503;48.534;9.062;2023-03-19T05:40:29;96828.16;;;10.93;71.27
76611;BME280;65503;48.534;9.062;2023-03-19T05:42:55;96821.94;;;10.99;70.76
76611;BME280;65503;48.534;9.062;2023-03-19T05:45:22;96825.69;;;11.03;70.88
76611;BME280;65503;48.534;9.062;2023-03-19T05:47:48;96830.88;;;10.98;70.94
76611;BME280;65503;48.534;9.062;2023-03-19T05:50:17;96839.72;;;10.92;71.57
76611;BME280;65503;48.534;9.062;2023-03-19T05:52:43;96834.53;;;10.97;71.40
76611;BME280;65503;48.534;9.062;2023-03-19T05:55:10;96838.28;;;11.01;71.48
76611;BME280;65503;48.534;9.062;2023-03-19T05:57:37;96850.78;;;10.94;71.94
76611;BME280;65503;48.534;9.062;2023-03-19T06:00:05;96854.13;;;10.89;71.84
76611;BME280;65503;48.534;9.062;2023-03-19T06:02:33;96859.16;;;10.91;71.31
76611;BME280;65503;48.534;9.062;2023-03-19T06:05:00;96864.13;;;10.75;71.27
76611;BME280;65503;48.534;9.062;2023-03-19T06:07:26;96860.44;;;10.76;71.58
76611;BME280;65503;48.534;9.062;2023-03-19T06:09:53;96861.22;;;10.89;71.32
76611;BME280;65503;48.534;9.062;2023-03-19T06:12:19;96877.09;;;10.94;72.00
76611;BME280;65503;48.534;9.062;2023-03-19T06:14:47;96877.69;;;10.96;71.52
76611;BME280;65503;48.534;9.062;2023-03-19T06:17:14;96878.81;;;11.00;71.31
76611;BME280;65503;48.534;9.062;2023-03-19T06:19:40;96878.25;;;10.98;71.69
76611;BME280;65503;48.534;9.062;2023-03-19T06:22:07;96874.00;;;11.08;71.42
76611;BME280;65503;48.534;9.062;2023-03-19T06:24:34;96884.38;;;11.15;71.34
76611;BME280;65503;48.534;9.062;2023-03-19T06:27:00;96887.66;;;11.22;70.86
76611;BME280;65503;48.534;9.062;2023-03-19T06:29:27;96893.63;;;11.17;71.46
76611;BME280;65503;48.534;9.062;2023-03-19T06:31:53;96888.22;;;11.24;71.27
76611;BME280;65503;48.534;9.062;2023-03-19T06:34:23;96882.97;;;11.24;71.24
76611;BME280;65503;48.534;9.062;2023-03-19T06:36:49;96881.19;;;11.13;71.50
76611;BME280;65503;48.534;9.062;2023-03-19T06:39:16;96888.06;;;11.14;71.47
76611;BME280;65503;48.534;9.062;2023-03-19T06:41:42;96887.56;;;11.17;71.73
76611;BME280;65503;48.534;9.062;2023-03-19T06:44:09;96875.47;;;11.16;72.05
76611;BME280;65503;48.534;9.062;2023-03-19T06:46:36;96876.09;;;11.23;71.82
76611;BME280;65503;48.534;9.062;2023-03-19T06:49:03;96864.16;;;11.32;71.85
76611;BME280;65503;48.534;9.062;2023-03-19T06:51:29;96870.53;;;11.36;71.82
76611;BME280;65503;48.534;9.062;2023-03-19T06:53:56;96867.53;;;11.44;71.85
76611;BME280;65503;48.534;9.062;2023-03-19T06:56:22;96861.50;;;11.60;72.29
76611;BME280;65503;48.534;9.062;2023-03-19T06:58:49;96858.91;;;11.77;72.39
76611;BME280;65503;48.534;9.062;2023-03-19T07:01:15;96853.69;;;11.99;71.70
76611;BME280;65503;48.534;9.062;2023-03-19T07:03:42;96861.13;;;12.19;71.14
76611;BME280;65503;48.534;9.062;2023-03-19T07:06:09;96870.44;;;12.26;71.15
76611;BME280;65503;48.534;9.062;2023-03-19T07:08:35;96867.88;;;12.31;70.79
76611;BME280;65503;48.534;9.062;2023-03-19T07:11:06;96868.81;;;12.42;70.62
76611;BME280;65503;48.534;9.062;2023-03-19T07:13:32;96872.94;;;12.55;70.32
76611;BME280;65503;48.534;9.062;2023-03-19T07:15:59;96875.19;;;12.63;69.67
76611;BME280;65503;48.534;9.062;2023-03-19T07:18:25;96875.53;;;12.71;69.99
76611;BME280;65503;48.534;9.062;2023-03-19T07:20:52;96879.53;;;12.74;69.54
76611;BME280;65503;48.534;9.062;2023-03-19T07:23:19;96877.53;;;12.81;69.75
76611;BME280;65503;48.534;9.062;2023-03-19T07:25:45;96881.84;;;12.87;69.98
76611;BME280;65503;48.534;9.062;2023-03-19T07:28:13;96879.84;;;12.99;69.29
76611;BME280;65503;48.534;9.062;2023-03-19T07:30:40;96879.03;;;13.15;68.92
76611;BME280;65503;48.534;9.062;2023-03-19T07:33:07;96880.22;;;13.30;68.25
76611;BME280;65503;48.534;9.062;2023-03-19T07:35:34;96887.19;;;13.41;68.42
76611;BME280;65503;48.534;9.062;2023-03-19T07:38:01;96888.81;;;13.42;67.67
76611;BME280;65503;48.534;9.062;2023-03-19T07:40:28;96896.78;;;13.47;67.41
76611;BME280;65503;48.534;9.062;2023-03-19T07:42:54;96888.66;;;13.53;67.12
76611;BME280;65503;48.534;9.062;2023-03-19T07:45:21;96888.94;;;13.57;66.79
76611;BME280;65503;48.534;9.062;2023-03-19T07:47:51;96894.97;;;13.79;66.58
76611;BME280;65503;48.534;9.062;2023-03-19T07:50:17;96901.50;;;13.98;66.22
76611;BME280;65503;48.534;9.062;2023-03-19T07:52:45;96896.31;;;14.14;65.84
76611;BME280;65503;48.534;9.062;2023-03-19T07:55:13;96897.97;;;14.25;64.67
76611;BME280;65503;48.534;9.062;2023-03-19T07:57:40;96897.13;;;14.51;64.00
76611;BME280;65503;48.534;9.062;2023-03-19T08:00:07;96895.13;;;14.73;61.77
76611;BME280;65503;48.534;9.062;2023-03-19T08:02:34;96899.75;;;14.98;60.31
76611;BME280;65503;48.534;9.062;2023-03-19T08:05:00;96894.81;;;15.27;59.72
76611;BME280;65503;48.534;9.062;2023-03-19T08:07:30;96890.03;;;15.24;59.31
76611;BME280;65503;48.534;9.062;2023-03-19T08:09:57;96899.34;;;15.32;60.12
76611;BME280;65503;48.534;9.062;2023-03-19T08:12:24;96903.84;;;15.26;60.45
76611;BME280;65503;48.534;9.062;2023-03-19T08:14:51;96891.56;;;15.10;60.75
76611;BME280;65503;48.534;9.062;2023-03-19T08:17:18;96901.38;;;15.09;61.15
76611;BME280;65503;48.534;9.062;2023-03-19T08:19:45;96889.44;;;15.07;61.17
76611;BME280;65503;48.534;9.062;2023-03-19T08:22:12;96898.41;;;14.96;61.25
76611;BME280;65503;48.534;9.062;2023-03-19T08:24:38;96898.97;;;14.98;61.61
76611;BME280;65503;48.534;9.062;2023-03-19T08:27:05;96891.03;;;15.03;61.18
76611;BME280;65503;48.534;9.062;2023-03-19T08:29:32;96886.84;;;15.22;61.13
76611;BME280;65503;48.534;9.062;2023-03-19T08:31:58;96896.69;;;15.32;60.56
76611;BME280;65503;48.534;9.062;2023-03-19T08:34:26;96893.88;;;15.53;60.33
76611;BME280;65503;48.534;9.062;2023-03-19T08:36:53;96890.16;;;15.75;58.98
76611;BME280;65503;48.534;9.062;2023-03-19T08:39:19;96894.44;;;15.91;58.48
76611;BME280;65503;48.534;9.062;2023-03-19T08:41:46;96899.47;;;16.07;58.02
76611;BME280;65503;48.534;9.062;2023-03-19T08:44:12;96894.16;;;16.07;57.41
76611;BME280;65503;48.534;9.062;2023-03-19T08:46:39;96896.56;;;15.89;57.88
76611;BME280;65503;48.534;9.062;2023-03-19T08:49:08;96893.91;;;16.34;57.50
76611;BME280;65503;48.534;9.062;2023-03-19T08:51:34;96905.50;;;16.89;55.53
76611;BME280;65503;48.534;9.062;2023-03-19T08:54:01;96905.38;;;17.19;53.77
76611;BME280;65503;48.534;9.062;2023-03-19T08:56:28;96905.28;;;17.40;53.66
76611;BME280;65503;48.534;9.062;2023-03-19T08:58:55;96904.91;;;17.56;52.66
76611;BME280;65503;48.534;9.062;2023-03-19T09:01:22;96908.09;;;18.02;50.37
76611;BME280;65503;48.534;9.062;2023-03-19T09:03:49;96908.78;;;19.47;47.65
76611;BME280;65503;48.534;9.062;2023-03-19T09:06:16;96912.16;;;21.28;44.06
76611;BME280;65503;48.534;9.062;2023-03-19T09:08:42;96908.66;;;21.55;41.15
76611;BME280;65503;48.534;9.062;2023-03-19T09:11:09;96909.94;;;22.60;39.96
76611;BME280;65503;48.534;9.062;2023-03-19T09:13:36;96907.31;;;24.43;36.50
76611;BME280;65503;48.534;9.062;2023-03-19T09:16:03;96906.22;;;24.99;34.21
76611;BME280;65503;48.534;9.062;2023-03-19T09:18:30;96915.97;;;26.12;31.64
76611;BME280;65503;48.534;9.062;2023-03-19T09:20:57;96919.53;;;27.15;30.18
76611;BME280;65503;48.534;9.062;2023-03-19T09:23:23;96914.19;;;26.94;30.41
76611;BME280;65503;48.534;9.062;2023-03-19T09:25:50;96915.56;;;26.22;30.14
76611;BME280;65503;48.534;9.062;2023-03-19T09:28:17;96916.69;;;24.92;33.21
76611;BME280;65503;48.534;9.062;2023-03-19T09:30:48;96916.97;;;24.01;33.67
76611;BME280;65503;48.534;9.062;2023-03-19T09:33:17;96908.53;;;22.94;35.26
76611;BME280;65503;48.534;9.062;2023-03-19T09:35:49;96903.25;;;22.05;35.71
76611;BME280;65503;48.534;9.062;2023-03-19T09:38:17;96900.91;;;22.03;37.18
76611;BME280;65503;48.534;9.062;2023-03-19T09:40:46;96898.66;;;22.50;37.07
76611;BME280;65503;48.534;9.062;2023-03-19T09:43:57;96912.66;;;22.69;37.00
76611;BME280;65503;48.534;9.062;2023-03-19T09:46:32;96911.28;;;23.20;35.38
76611;BME280;65503;48.534;9.062;2023-03-19T09:49:09;96910.00;;;24.43;33.04
76611;BME280;65503;48.534;9.062;2023-03-19T09:51:45;96907.88;;;25.41;32.02
76611;BME280;65503;48.534;9.062;2023-03-19T09:54:21;96901.19;;;25.47;29.99
76611;BME280;65503;48.534;9.062;2023-03-19T09:56:51;96895.63;;;24.30;31.17
76611;BME280;65503;48.534;9.062;2023-03-19T09:59:20;96896.50;;;22.30;34.57
76611;BME280;65503;48.534;9.062;2023-03-19T10:01:54;96895.72;;;21.93;35.74
76611;BME280;65503;48.534;9.062;2023-03-19T10:04:39;96895.72;;;22.60;33.95
76611;BME280;65503;48.534;9.062;2023-03-19T10:15:32;96874.56;;;20.19;35.57
76611;BME280;65503;48.534;9.062;2023-03-19T10:18:04;96874.28;;;20.67;35.53
76611;BME280;65503;48.534;9.062;2023-03-19T10:20:43;96870.69;;;20.44;36.29
76611;BME280;65503;48.534;9.062;2023-03-19T10:23:36;96865.34;;;20.44;34.26
76611;BME280;65503;48.534;9.062;2023-03-19T10:26:08;96863.63;;;20.02;34.57
76611;BME280;65503;48.534;9.062;2023-03-19T10:28:37;96866.38;;;20.61;33.74
76611;BME280;65503;48.534;9.062;2023-03-19T10:36:32;96859.22;;;20.98;31.33
76611;BME280;65503;48.534;9.062;2023-03-19T10:38:59;96851.34;;;20.01;32.52
76611;BME280;65503;48.534;9.062;2023-03-19T10:42:05;96850.94;;;19.19;33.74
76611;BME280;65503;48.534;9.062;2023-03-19T10:44:37;96845.91;;;19.73;34.23
76611;BME280;65503;48.534;9.062;2023-03-19T10:47:13;96850.41;;;20.24;33.43
76611;BME280;65503;48.534;9.062;2023-03-19T10:49:40;96853.06;;;20.10;33.35
76611;BME280;65503;48.534;9.062;2023-03-19T10:52:33;96853.84;;;20.11;34.07
76611;BME280;65503;48.534;9.062;2023-03-19T10:55:12;96848.13;;;20.63;32.24
76611;BME280;65503;48.534;9.062;2023-03-19T10:57:43;96846.03;;;20.33;33.05
76611;BME280;65503;48.534;9.062;2023-03-19T11:00:19;96844.94;;;19.83;33.53
76611;BME280;65503;48.534;9.062;2023-03-19T11:02:50;96853.84;;;19.41;34.66
76611;BME280;65503;48.534;9.062;2023-03-19T11:05:24;96849.13;;;19.14;35.25
76611;BME280;65503;48.534;9.062;2023-03-19T11:07:56;96846.28;;;19.67;34.49
76611;BME280;65503;48.534;9.062;2023-03-19T11:10:26;96851.47;;;18.97;35.63
76611;BME280;65503;48.534;9.062;2023-03-19T11:12:57;96851.84;;;19.70;35.04
76611;BME280;65503;48.534;9.062;2023-03-19T11:15:36;96854.56;;;19.28;35.01
76611;BME280;65503;48.534;9.062;2023-03-19T11:18:16;96858.38;;;18.79;36.25
76611;BME280;65503;48.534;9.062;2023-03-19T11:20:51;96855.25;;;19.15;35.69
76611;BME280;65503;48.534;9.062;2023-03-19T11:23:20;96863.97;;;19.02;36.47
76611;BME280;65503;48.534;9.062;2023-03-19T11:25:54;96858.16;;;19.37;35.07
76611;BME280;65503;48.534;9.062;2023-03-19T11:28:25;96861.63;;;20.26;33.73
76611;BME280;65503;48.534;9.062;2023-03-19T11:36:26;96851.88;;;19.28;34.92
76611;BME280;65503;48.534;9.062;2023-03-19T11:45:08;96848.81;;;21.82;30.51
76611;BME280;65503;48.534;9.062;2023-03-19T11:53:01;96850.72;;;20.96;31.60
76611;BME280;65503;48.534;9.062;2023-03-19T11:55:40;96847.66;;;19.64;33.38
76611;BME280;65503;48.534;9.062;2023-03-19T12:01:37;96840.19;;;20.86;33.26
76611;BME280;65503;48.534;9.062;2023-03-19T12:04:48;96833.28;;;21.48;31.28
76611;BME280;65503;48.534;9.062;2023-03-19T12:10:49;96833.66;;;20.92;31.58
76611;BME280;65503;48.534;9.062;2023-03-19T12:16:19;96825.44;;;20.47;32.79
76611;BME280;65503;48.534;9.062;2023-03-19T12:22:11;96831.41;;;21.49;31.73
76611;BME280;65503;48.534;9.062;2023-03-19T12:24:59;96828.84;;;21.88;31.05
76611;BME280;65503;48.534;9.062;2023-03-19T12:27:39;96823.66;;;20.56;33.20
76611;BME280;65503;48.534;9.062;2023-03-19T12:30:32;96821.97;;;20.74;32.70
76611;BME280;65503;48.534;9.062;2023-03-19T12:33:10;96827.72;;;20.68;32.97
76611;BME280;65503;48.534;9.062;2023-03-19T12:35:42;96817.41;;;20.75;33.38
76611;BME280;65503;48.534;9.062;2023-03-19T12:38:25;96822.88;;;20.70;32.79
76611;BME280;65503;48.534;9.062;2023-03-19T12:41:08;96822.16;;;21.05;32.58
76611;BME280;65503;48.534;9.062;2023-03-19T12:43:43;96815.25;;;20.63;33.41
76611;BME280;65503;48.534;9.062;2023-03-19T12:51:26;96812.72;;;19.05;36.25
76611;BME280;65503;48.534;9.062;2023-03-19T12:56:46;96809.69;;;20.46;33.83
76611;BME280;65503;48.534;9.062;2023-03-19T13:02:11;96812.06;;;20.47;33.34
76611;BME280;65503;48.534;9.062;2023-03-19T13:04:52;96803.75;;;20.76;33.37
76611;BME280;65503;48.534;9.062;2023-03-19T13:07:49;96805.75;;;20.43;33.06
76611;BME280;65503;48.534;9.062;2023-03-19T13:10:18;96806.53;;;20.71;33.55
76611;BME280;65503;48.534;9.062;2023-03-19T13:12:47;96803.38;;;20.55;33.45
76611;BME280;65503;48.534;9.062;2023-03-19T13:15:38;96807.81;;;20.00;34.56
76611;BME280;65503;48.534;9.062;2023-03-19T13:18:31;96809.91;;;20.49;33.70
76611;BME280;65503;48.534;9.062;2023-03-19T13:23:41;96798.88;;;19.40;36.05
76611;BME280;65503;48.534;9.062;2023-03-19T13:26:10;96809.81;;;18.58;37.03
76611;BME280;65503;48.534;9.062;2023-03-19T13:28:59;96803.34;;;19.63;35.23
76611;BME280;65503;48.534;9.062;2023-03-19T13:31:28;96806.63;;;19.93;35.17
76611;BME280;65503;48.534;9.062;2023-03-19T13:34:05;96803.69;;;20.08;34.57
76611;BME280;65503;48.534;9.062;2023-03-19T13:36:36;96804.44;;;19.95;34.45
76611;BME280;65503;48.534;9.062;2023-03-19T13:39:12;96807.28;;;18.91;36.33
76611;BME280;65503;48.534;9.062;2023-03-19T13:44:28;96808.66;;;18.88;37.04
76611;BME280;65503;48.534;9.062;2023-03-19T13:47:47;96805.94;;;19.31;35.73
76611;BME280;65503;48.534;9.062;2023-03-19T13:58:04;96800.66;;;18.88;37.30
76611;BME280;65503;48.534;9.062;2023-03-19T14:03:21;96805.94;;;18.70;38.14
76611;BME280;65503;48.534;9.062;2023-03-19T14:05:51;96805.91;;;18.46;38.46
76611;BME280;65503;48.534;9.062;2023-03-19T14:08:21;96803.94;;;18.33;39.20
76611;BME280;65503;48.534;9.062;2023-03-19T14:10:51;96796.06;;;18.46;39.53
76611;BME280;65503;48.534;9.062;2023-03-19T14:13:30;96806.16;;;18.49;38.98
76611;BME280;65503;48.534;9.062;2023-03-19T14:16:08;96808.41;;;18.66;39.32
76611;BME280;65503;48.534;9.062;2023-03-19T14:18:39;96810.69;;;18.49;39.38
76611;BME280;65503;48.534;9.062;2023-03-19T14:21:12;96808.53;;;18.27;40.32
76611;BME280;65503;48.534;9.062;2023-03-19T14:23:51;96810.44;;;18.22;40.13
76611;BME280;65503;48.534;9.062;2023-03-19T14:26:24;96809.22;;;18.38;40.06